createdAt,value
2018-02-16T00:02:16.343Z,86.80
2018-02-16T00:04:43.343Z,86.70
2018-02-16T00:07:10.340Z,86.10
2018-02-16T00:09:36.623Z,86.00
2018-02-16T00:12:02.862Z,85.80
2018-02-16T00:14:29.135Z,86.40
2018-02-16T00:16:55.407Z,86.00
2018-02-16T00:19:22.202Z,85.50
2018-02-16T00:21:48.476Z,85.60
2018-02-16T00:24:14.794Z,85.10
2018-02-16T00:26:41.063Z,85.10
2018-02-16T00:29:11.211Z,85.30
2018-02-16T00:31:38.210Z,85.70
2018-02-16T00:34:04.462Z,85.60
2018-02-16T00:36:30.759Z,85.50
2018-02-16T00:38:57.039Z,85.80
2018-02-16T00:41:23.291Z,85.30
2018-02-16T00:43:49.555Z,86.00
2018-02-16T00:46:15.831Z,86.00
2018-02-16T00:48:42.095Z,85.70
2018-02-16T00:51:08.367Z,85.30
2018-02-16T00:53:34.676Z,84.70
2018-02-16T00:56:00.980Z,84.70
2018-02-16T00:58:27.968Z,86.30
2018-02-16T01:00:54.424Z,86.30
2018-02-16T01:03:20.699Z,85.40
2018-02-16T01:05:47.031Z,85.20
2018-02-16T01:08:13.279Z,85.30
2018-02-16T01:10:39.918Z,85.00
2018-02-16T01:13:06.190Z,85.00
2018-02-16T01:15:32.495Z,84.80
2018-02-16T01:17:58.755Z,84.30
2018-02-16T01:20:25.021Z,84.30
2018-02-16T01:22:51.311Z,84.30
2018-02-16T01:25:18.358Z,85.00
2018-02-16T01:27:45.619Z,85.00
2018-02-16T01:30:11.923Z,85.30
2018-02-16T01:32:43.575Z,84.80
2018-02-16T01:35:09.844Z,84.20
2018-02-16T01:37:36.137Z,85.20
2018-02-16T01:40:03.137Z,84.40
2018-02-16T01:42:29.549Z,84.40
2018-02-16T01:44:55.815Z,84.60
2018-02-16T01:47:22.814Z,84.80
2018-02-16T01:50:02.179Z,84.80
2018-02-16T01:52:28.725Z,84.60
2018-02-16T01:54:55.030Z,86.40
2018-02-16T01:57:22.006Z,84.50
2018-02-16T01:59:48.592Z,84.50
2018-02-16T02:02:14.842Z,86.40
2018-02-16T02:04:41.567Z,85.50
2018-02-16T02:07:07.799Z,85.60
2018-02-16T02:09:34.054Z,85.20
2018-02-16T02:12:00.323Z,85.30
2018-02-16T02:14:26.548Z,84.80
2018-02-16T02:16:52.963Z,85.40
2018-02-16T02:19:19.226Z,84.50
2018-02-16T02:21:45.519Z,84.90
2018-02-16T02:24:11.764Z,85.70
2018-02-16T02:26:38.207Z,86.10
2018-02-16T02:29:04.459Z,86.10
2018-02-16T02:31:30.734Z,86.60
2018-02-16T02:33:57.784Z,86.80
2018-02-16T02:36:24.814Z,86.60
2018-02-16T02:38:51.099Z,86.40
2018-02-16T02:41:17.348Z,85.90
2018-02-16T02:43:43.649Z,86.30
2018-02-16T02:46:10.660Z,87.10
2018-02-16T02:48:36.915Z,87.00
2018-02-16T02:51:03.148Z,86.70
2018-02-16T02:53:29.439Z,86.60
2018-02-16T02:55:55.939Z,86.20
2018-02-16T02:58:22.228Z,86.30
2018-02-16T03:00:48.460Z,86.60
2018-02-16T03:03:14.730Z,85.90
2018-02-16T03:05:40.978Z,85.90
2018-02-16T03:08:07.288Z,86.00
2018-02-16T03:10:33.527Z,86.20
2018-02-16T03:12:59.775Z,85.80
2018-02-16T03:15:26.035Z,86.20
2018-02-16T03:17:52.278Z,86.00
2018-02-16T03:20:18.764Z,86.00
2018-02-16T03:22:45.031Z,85.40
2018-02-16T03:25:11.327Z,85.20
2018-02-16T03:27:37.567Z,85.10
2018-02-16T03:30:03.877Z,85.10
2018-02-16T03:32:30.594Z,87.10
2018-02-16T03:34:56.860Z,85.20
2018-02-16T03:37:23.129Z,84.90
2018-02-16T03:39:49.436Z,84.80
2018-02-16T03:42:15.663Z,85.50
2018-02-16T03:44:41.931Z,84.80
2018-02-16T03:47:08.263Z,85.00
2018-02-16T03:49:34.560Z,85.40
2018-02-16T03:52:00.827Z,86.30
2018-02-16T03:54:27.808Z,85.60
2018-02-16T03:56:54.099Z,85.50
2018-02-16T03:59:20.332Z,84.70
2018-02-16T04:01:46.615Z,86.10
2018-02-16T04:04:12.919Z,84.60
2018-02-16T04:06:39.193Z,84.60
2018-02-16T04:09:05.414Z,85.70
2018-02-16T04:11:31.668Z,85.70
2018-02-16T04:13:57.943Z,85.30
2018-02-16T04:19:22.047Z,85.40
2018-02-16T04:21:48.330Z,87.70
2018-02-16T04:24:14.575Z,87.10
2018-02-16T04:26:40.807Z,86.70
2018-02-16T04:29:07.111Z,87.10
2018-02-16T04:31:33.342Z,86.90
2018-02-16T04:34:00.355Z,87.30
2018-02-16T04:36:26.600Z,87.30
2018-02-16T04:38:56.750Z,87.30
2018-02-16T04:41:24.255Z,87.20
2018-02-16T04:43:50.510Z,87.20
2018-02-16T04:46:16.749Z,88.40
2018-02-16T04:48:43.015Z,87.90
2018-02-16T04:51:09.412Z,88.40
2018-02-16T04:53:35.659Z,87.90
2018-02-16T04:56:01.904Z,87.80
2018-02-16T04:58:28.183Z,87.80
2018-02-16T05:00:54.466Z,88.00
2018-02-16T05:03:20.682Z,87.70
2018-02-16T05:05:46.930Z,87.70
2018-02-16T05:08:15.160Z,88.20
2018-02-16T05:10:42.316Z,88.10
2018-02-16T05:13:08.587Z,88.00
2018-02-16T05:15:35.014Z,88.00
2018-02-16T05:18:01.254Z,87.90
2018-02-16T05:20:28.255Z,88.10
2018-02-16T05:22:54.494Z,88.10
2018-02-16T05:25:20.892Z,88.30
2018-02-16T05:27:47.123Z,88.00
2018-02-16T05:30:13.739Z,87.50
2018-02-16T05:32:39.980Z,87.80
2018-02-16T05:35:06.951Z,87.80
2018-02-16T05:37:33.755Z,87.80
2018-02-16T05:40:00.074Z,88.10
2018-02-16T05:42:41.271Z,87.90
2018-02-16T05:45:08.240Z,87.30
2018-02-16T05:47:34.512Z,87.40
2018-02-16T05:50:00.754Z,87.50
2018-02-16T05:52:27.103Z,88.10
2018-02-16T05:54:53.357Z,87.60
2018-02-16T05:57:19.620Z,87.80
2018-02-16T05:59:45.843Z,87.60
2018-02-16T06:02:12.128Z,87.50
2018-02-16T06:04:39.126Z,87.20
2018-02-16T06:07:05.399Z,87.20
2018-02-16T06:09:32.411Z,87.00
2018-02-16T06:11:58.639Z,86.90
2018-02-16T06:14:24.883Z,87.00
2018-02-16T06:16:51.143Z,87.10
2018-02-16T06:19:18.320Z,87.00
2018-02-16T06:21:44.618Z,87.00
2018-02-16T06:24:10.840Z,87.00
2018-02-16T06:26:37.067Z,87.10
2018-02-16T06:29:03.318Z,87.00
2018-02-16T06:31:29.551Z,87.00
2018-02-16T06:33:55.776Z,86.90
2018-02-16T06:36:22.215Z,86.60
2018-02-16T06:38:49.208Z,86.50
2018-02-16T06:41:15.450Z,86.40
2018-02-16T06:43:41.663Z,86.60
2018-02-16T06:46:07.906Z,86.50
2018-02-16T06:48:34.115Z,86.40
2018-02-16T06:51:00.403Z,86.40
2018-02-16T06:53:26.639Z,86.50
2018-02-16T06:55:53.035Z,86.60
2018-02-16T06:58:19.277Z,86.50
2018-02-16T07:00:45.518Z,86.50
2018-02-16T07:03:11.860Z,86.60
2018-02-16T07:05:38.136Z,86.80
2018-02-16T07:08:04.396Z,86.90
2018-02-16T07:10:30.688Z,86.50
2018-02-16T07:12:56.947Z,86.50
2018-02-16T07:15:23.188Z,86.30
2018-02-16T07:17:49.524Z,86.70
2018-02-16T07:20:15.987Z,86.70
2018-02-16T07:22:42.238Z,86.80
2018-02-16T07:25:09.436Z,86.40
2018-02-16T07:27:36.487Z,86.50
2018-02-16T07:30:02.789Z,86.50
2018-02-16T07:32:29.035Z,86.20
2018-02-16T07:34:55.287Z,86.10
2018-02-16T07:37:21.559Z,85.90
2018-02-16T07:39:47.801Z,85.50
2018-02-16T07:42:14.794Z,85.40
2018-02-16T07:44:41.647Z,85.40
2018-02-16T07:47:08.477Z,85.30
2018-02-16T07:49:34.727Z,85.30
2018-02-16T07:52:01.026Z,85.10
2018-02-16T07:54:27.278Z,85.00
2018-02-16T07:56:53.524Z,85.20
2018-02-16T07:59:19.778Z,85.70
2018-02-16T08:01:46.759Z,84.30
2018-02-16T08:04:13.115Z,84.20
2018-02-16T08:06:39.364Z,83.80
2018-02-16T08:09:05.620Z,83.60
2018-02-16T08:11:32.131Z,83.30
2018-02-16T08:13:58.362Z,82.80
2018-02-16T08:16:25.011Z,83.30
2018-02-16T08:18:51.250Z,83.60
2018-02-16T08:21:17.598Z,83.60
2018-02-16T08:23:43.947Z,82.90
2018-02-16T08:26:10.912Z,82.10
2018-02-16T08:28:37.145Z,82.00
2018-02-16T08:31:03.420Z,82.10
2018-02-16T08:33:29.654Z,81.60
2018-02-16T08:35:55.919Z,81.60
2018-02-16T08:38:22.163Z,81.50
2018-02-16T08:40:52.267Z,81.80
2018-02-16T08:43:19.413Z,80.90
2018-02-16T08:45:45.651Z,80.90
2018-02-16T08:48:11.914Z,80.90
2018-02-16T08:50:38.161Z,80.40
2018-02-16T08:53:04.435Z,80.70
2018-02-16T08:55:31.411Z,80.50
2018-02-16T08:57:57.647Z,80.40
2018-02-16T09:00:23.884Z,80.90
2018-02-16T09:02:50.146Z,80.50
2018-02-16T09:05:16.382Z,80.70
2018-02-16T09:07:42.646Z,81.10
2018-02-16T09:10:08.863Z,81.40
2018-02-16T09:12:35.167Z,81.30
2018-02-16T09:15:01.400Z,80.60
2018-02-16T09:17:27.736Z,81.00
2018-02-16T09:19:53.982Z,80.90
2018-02-16T09:22:20.654Z,80.60
2018-02-16T09:24:46.911Z,81.00
2018-02-16T09:27:13.394Z,80.10
2018-02-16T09:29:39.659Z,81.10
2018-02-16T09:32:05.927Z,81.00
2018-02-16T09:34:32.196Z,81.50
2018-02-16T09:36:58.463Z,80.50
2018-02-16T09:39:28.370Z,80.50
2018-02-16T09:41:55.414Z,80.20
2018-02-16T09:44:21.717Z,80.20
2018-02-16T09:46:48.722Z,80.70
2018-02-16T09:49:15.078Z,80.60
2018-02-16T09:51:42.059Z,80.80
2018-02-16T09:54:08.311Z,80.70
2018-02-16T09:56:34.535Z,80.50
2018-02-16T09:59:00.747Z,80.30
2018-02-16T10:01:27.459Z,79.30
2018-02-16T10:03:53.694Z,79.40
2018-02-16T10:06:19.935Z,79.70
2018-02-16T10:08:46.151Z,78.00
2018-02-16T10:11:12.395Z,78.00
2018-02-16T10:13:39.379Z,77.30
2018-02-16T10:16:09.627Z,77.30
2018-02-16T10:18:35.842Z,78.60
2018-02-16T10:21:02.228Z,77.80
2018-02-16T10:23:28.687Z,76.70
2018-02-16T10:25:55.011Z,77.00
2018-02-16T10:28:22.060Z,76.40
2018-02-16T10:30:48.311Z,76.40
2018-02-16T10:33:14.572Z,76.90
2018-02-16T10:35:41.800Z,76.30
2018-02-16T10:38:08.395Z,76.40
2018-02-16T10:40:35.370Z,75.80
2018-02-16T10:43:01.627Z,75.80
2018-02-16T10:45:27.862Z,75.90
2018-02-16T10:47:54.139Z,75.30
2018-02-16T10:50:20.391Z,73.90
2018-02-16T10:52:46.643Z,74.40
2018-02-16T10:55:12.904Z,73.20
2018-02-16T10:57:39.894Z,73.90
2018-02-16T11:00:06.176Z,73.60
2018-02-16T11:02:38.320Z,74.10
2018-02-16T11:05:10.650Z,73.00
2018-02-16T11:07:43.334Z,73.20
2018-02-16T11:10:10.482Z,73.90
2018-02-16T11:12:36.731Z,72.10
2018-02-16T11:15:03.004Z,69.80
2018-02-16T11:17:29.226Z,70.30
2018-02-16T11:19:55.952Z,69.80
2018-02-16T11:22:28.150Z,69.10
2018-02-16T11:24:54.535Z,69.20
2018-02-16T11:27:20.763Z,69.60
2018-02-16T11:29:47.008Z,69.70
2018-02-16T11:32:14.062Z,68.30
2018-02-16T11:34:40.295Z,68.20
2018-02-16T11:37:06.566Z,67.90
2018-02-16T11:39:32.883Z,68.00
2018-02-16T11:41:59.159Z,68.70
2018-02-16T11:44:25.396Z,68.20
2018-02-16T11:46:51.627Z,68.00
2018-02-16T11:49:17.874Z,68.20
2018-02-16T11:51:44.230Z,66.90
2018-02-16T11:54:10.474Z,65.40
2018-02-16T11:56:37.195Z,65.50
2018-02-16T11:59:03.432Z,66.40
2018-02-16T12:01:30.203Z,66.30
2018-02-16T12:03:56.511Z,64.70
2018-02-16T12:06:22.819Z,64.00
2018-02-16T12:08:49.051Z,62.90
2018-02-16T12:11:15.654Z,63.50
2018-02-16T12:13:41.919Z,64.40
2018-02-16T12:16:08.150Z,64.00
2018-02-16T12:18:34.471Z,62.30
2018-02-16T12:21:00.810Z,62.00
2018-02-16T12:23:27.066Z,62.60
2018-02-16T12:25:53.503Z,62.10
2018-02-16T12:28:19.763Z,59.30
2018-02-16T12:30:46.379Z,59.00
2018-02-16T12:33:12.643Z,59.70
2018-02-16T12:35:38.880Z,60.10
2018-02-16T12:38:05.127Z,60.70
2018-02-16T12:40:32.091Z,58.70
2018-02-16T12:42:58.371Z,58.60
2018-02-16T12:45:24.610Z,58.60
2018-02-16T12:47:50.852Z,58.10
2018-02-16T12:50:17.131Z,58.30
2018-02-16T12:52:43.368Z,58.90
2018-02-16T12:55:09.604Z,58.00
2018-02-16T12:57:35.850Z,57.30
2018-02-16T13:00:02.175Z,59.90
2018-02-16T13:02:28.435Z,58.40
2018-02-16T13:04:54.735Z,57.00
2018-02-16T13:07:23.142Z,54.50
2018-02-16T13:09:49.533Z,55.00
2018-02-16T13:12:16.298Z,54.80
2018-02-16T13:14:42.567Z,53.60
2018-02-16T13:17:08.848Z,52.80
2018-02-16T13:19:35.116Z,52.20
2018-02-16T13:22:01.648Z,53.00
2018-02-16T13:24:27.908Z,52.80
2018-02-16T13:26:54.919Z,51.50
2018-02-16T13:29:21.218Z,51.50
2018-02-16T13:31:47.473Z,51.50
2018-02-16T13:34:13.739Z,51.90
2018-02-16T13:36:40.732Z,50.30
2018-02-16T13:39:06.967Z,50.30
2018-02-16T13:41:33.206Z,50.10
2018-02-16T13:43:59.479Z,51.40
2018-02-16T13:46:25.746Z,51.20
2018-02-16T13:48:51.982Z,50.10
2018-02-16T13:51:18.267Z,51.10
2018-02-16T13:53:44.791Z,50.50
2018-02-16T13:56:11.035Z,49.50
2018-02-16T13:58:37.403Z,48.70
2018-02-16T14:01:04.759Z,46.40
2018-02-16T14:03:31.006Z,45.80
2018-02-16T14:05:57.256Z,46.40
2018-02-16T14:08:23.535Z,45.80
2018-02-16T14:10:49.806Z,47.10
2018-02-16T14:13:16.056Z,48.30
2018-02-16T14:15:43.090Z,46.00
2018-02-16T14:18:09.420Z,45.80
2018-02-16T14:20:35.667Z,45.80
2018-02-16T14:23:01.944Z,43.60
2018-02-16T14:25:28.243Z,44.70
2018-02-16T14:27:54.499Z,46.30
2018-02-16T14:30:20.763Z,43.40
2018-02-16T14:32:47.117Z,43.30
2018-02-16T14:35:13.312Z,44.30
2018-02-16T14:37:39.538Z,44.80
2018-02-16T14:40:05.844Z,44.20
2018-02-16T14:42:32.089Z,44.70
2018-02-16T14:44:58.351Z,44.50
2018-02-16T14:47:24.585Z,42.90
2018-02-16T14:49:50.857Z,41.50
2018-02-16T14:52:17.078Z,39.60
2018-02-16T14:54:43.332Z,38.60
2018-02-16T14:57:09.629Z,36.60
2018-02-16T14:59:35.908Z,34.40
2018-02-16T15:02:02.231Z,34.10
2018-02-16T15:04:28.524Z,31.40
2018-02-16T15:06:54.835Z,29.10
2018-02-16T15:09:21.113Z,28.30
2018-02-16T15:11:47.363Z,26.80
2018-02-16T15:14:13.643Z,27.20
2018-02-16T15:16:39.933Z,27.20
2018-02-16T15:19:06.189Z,27.10
2018-02-16T15:21:32.448Z,27.00
2018-02-16T15:23:59.416Z,26.50
2018-02-16T15:26:25.666Z,25.60
2018-02-16T15:28:51.907Z,26.00
2018-02-16T15:31:18.164Z,26.70
2018-02-16T15:33:44.407Z,25.80
2018-02-16T15:36:10.656Z,26.80
2018-02-16T15:38:37.520Z,26.20
2018-02-16T15:41:04.316Z,25.50
2018-02-16T15:43:30.587Z,26.50
2018-02-16T15:45:56.840Z,26.20
2018-02-16T15:48:23.099Z,26.90
2018-02-16T15:50:49.568Z,26.30
2018-02-16T15:53:15.828Z,25.70
2018-02-16T15:55:42.972Z,26.80
2018-02-16T15:58:09.294Z,26.60
2018-02-16T16:00:35.512Z,26.90
2018-02-16T16:03:01.787Z,27.10
2018-02-16T16:05:28.795Z,29.80
2018-02-16T16:07:55.028Z,29.80
2018-02-16T16:10:21.286Z,31.00
2018-02-16T16:12:47.535Z,35.30
2018-02-16T16:15:14.539Z,38.50
2018-02-16T16:17:40.763Z,38.50
2018-02-16T16:20:07.052Z,39.90
2018-02-16T16:22:33.319Z,42.40
2018-02-16T16:24:59.632Z,42.90
2018-02-16T16:27:25.870Z,44.90
2018-02-16T16:29:52.903Z,46.40
2018-02-16T16:32:19.184Z,49.40
2018-02-16T16:34:45.438Z,48.80
2018-02-16T16:37:11.659Z,50.10
2018-02-16T16:39:38.886Z,53.70
2018-02-16T16:42:05.146Z,53.70
2018-02-16T16:44:31.418Z,54.30
2018-02-16T16:46:57.671Z,54.70
2018-02-16T16:49:23.951Z,55.80
2018-02-16T16:51:50.235Z,57.30
2018-02-16T16:54:16.497Z,57.20
2018-02-16T16:56:42.792Z,58.20
2018-02-16T16:59:09.079Z,58.60
2018-02-16T17:01:35.339Z,58.70
2018-02-16T17:04:01.599Z,59.70
2018-02-16T17:06:28.063Z,59.70
2018-02-16T17:08:54.306Z,59.90
2018-02-16T17:11:21.350Z,60.40
2018-02-16T17:13:47.604Z,60.50
2018-02-16T17:16:13.894Z,60.50
2018-02-16T17:18:40.839Z,61.00
2018-02-16T17:21:07.181Z,61.70
2018-02-16T17:23:33.423Z,62.80
2018-02-16T17:26:00.871Z,64.30
2018-02-16T17:28:27.133Z,64.30
2018-02-16T17:30:53.410Z,65.00
2018-02-16T17:33:19.695Z,65.00
2018-02-16T17:35:45.926Z,64.80
2018-02-16T17:38:12.255Z,64.80
2018-02-16T17:40:38.509Z,65.30
2018-02-16T17:43:04.789Z,65.50
2018-02-16T17:45:31.083Z,65.90
2018-02-16T17:47:57.368Z,66.30
2018-02-16T17:50:23.631Z,66.30
2018-02-16T17:52:49.899Z,66.80
2018-02-16T17:55:16.163Z,66.70
2018-02-16T17:57:43.147Z,67.20
2018-02-16T18:00:09.425Z,67.10
2018-02-16T18:02:35.683Z,67.40
2018-02-16T18:05:02.262Z,68.10
2018-02-16T18:07:28.524Z,68.50
2018-02-16T18:09:54.783Z,68.70
2018-02-16T18:12:21.034Z,68.90
2018-02-16T18:14:47.304Z,68.90
2018-02-16T18:17:13.562Z,69.00
2018-02-16T18:19:39.827Z,68.70
2018-02-16T18:22:06.643Z,69.10
2018-02-16T18:24:32.923Z,69.80
2018-02-16T18:26:59.160Z,69.50
2018-02-16T18:29:28.355Z,69.50
2018-02-16T18:31:54.635Z,69.10
2018-02-16T18:34:21.618Z,68.90
2018-02-16T18:36:47.899Z,68.90
2018-02-16T18:39:14.979Z,69.30
2018-02-16T18:41:41.235Z,69.80
2018-02-16T18:44:07.478Z,70.20
2018-02-16T18:46:33.730Z,70.50
2018-02-16T18:48:59.987Z,70.60
2018-02-16T18:51:26.291Z,70.90
2018-02-16T18:53:52.536Z,71.30
2018-02-16T18:56:21.019Z,71.20
2018-02-16T18:58:47.315Z,71.30
2018-02-16T19:01:13.579Z,71.50
2018-02-16T19:03:39.818Z,71.50
2018-02-16T19:06:06.856Z,71.80
2018-02-16T19:08:34.267Z,71.90
2018-02-16T19:11:01.318Z,72.20
2018-02-16T19:13:30.107Z,72.20
2018-02-16T19:15:56.364Z,72.20
2018-02-16T19:18:22.607Z,72.10
2018-02-16T19:20:49.078Z,72.10
2018-02-16T19:23:18.521Z,72.10
2018-02-16T19:25:44.814Z,71.90
2018-02-16T19:28:11.908Z,72.50
2018-02-16T19:30:38.178Z,71.80
2018-02-16T19:33:04.450Z,72.00
2018-02-16T19:35:30.692Z,72.00
2018-02-16T19:37:56.960Z,72.30
2018-02-16T19:40:23.252Z,72.90
2018-02-16T19:42:49.551Z,72.80
2018-02-16T19:45:15.839Z,72.90
2018-02-16T19:47:43.837Z,73.40
2018-02-16T19:50:10.824Z,73.40
2018-02-16T19:52:39.159Z,73.60
2018-02-16T19:55:06.267Z,73.90
2018-02-16T19:57:32.530Z,73.90
2018-02-16T19:59:59.245Z,74.60
2018-02-16T20:02:26.799Z,73.50
2018-02-16T20:04:53.936Z,73.60
2018-02-16T20:07:21.391Z,73.70
2018-02-16T20:09:48.098Z,73.60
2018-02-16T20:12:14.399Z,73.70
2018-02-16T20:14:40.636Z,73.90
2018-02-16T20:17:06.895Z,74.30
2018-02-16T20:19:33.600Z,74.40
2018-02-16T20:22:01.026Z,74.00
2018-02-16T20:24:27.319Z,74.00
2018-02-16T20:26:53.567Z,74.00
2018-02-16T20:29:20.575Z,74.30
2018-02-16T20:31:46.836Z,74.30
2018-02-16T20:34:13.111Z,74.50
2018-02-16T20:36:39.633Z,74.40
2018-02-16T20:39:05.922Z,74.40
2018-02-16T20:41:33.092Z,74.30
2018-02-16T20:43:59.423Z,74.20
2018-02-16T20:46:25.966Z,74.20
2018-02-16T20:48:52.910Z,74.20
2018-02-16T20:51:20.028Z,74.60
2018-02-16T20:53:46.274Z,74.50
2018-02-16T20:56:12.539Z,74.30
2018-02-16T20:58:38.801Z,74.40
2018-02-16T21:01:06.045Z,74.10
2018-02-16T21:03:32.315Z,74.30
2018-02-16T21:05:58.614Z,74.40
2018-02-16T21:08:24.903Z,74.40
2018-02-16T21:10:51.918Z,74.50
2018-02-16T21:13:18.199Z,74.40
2018-02-16T21:15:45.079Z,74.50
2018-02-16T21:18:11.353Z,74.60
2018-02-16T21:20:37.687Z,74.60
2018-02-16T21:23:03.971Z,74.50
2018-02-16T21:25:30.256Z,74.60
2018-02-16T21:27:56.500Z,74.60
2018-02-16T21:30:23.533Z,74.60
2018-02-16T21:32:49.839Z,74.50
2018-02-16T21:35:17.999Z,74.40
2018-02-16T21:37:44.263Z,74.40
2018-02-16T21:40:10.515Z,74.50
2018-02-16T21:42:44.416Z,74.40
2018-02-16T21:45:11.465Z,74.40
2018-02-16T21:47:37.710Z,74.40
2018-02-16T21:50:03.999Z,74.40
2018-02-16T21:52:30.278Z,74.40
2018-02-16T21:54:56.609Z,74.40
2018-02-16T21:57:22.899Z,74.80
2018-02-16T21:59:49.152Z,75.00
2018-02-16T22:02:15.402Z,74.70
2018-02-16T22:04:41.642Z,75.00
2018-02-16T22:07:08.626Z,75.60
2018-02-16T22:09:34.904Z,75.40
2018-02-16T22:12:01.155Z,75.40
2018-02-16T22:14:27.809Z,75.60
2018-02-16T22:16:54.055Z,75.50
2018-02-16T22:19:20.416Z,75.70
2018-02-16T22:21:46.611Z,76.00
2018-02-16T22:24:12.892Z,76.00
2018-02-16T22:26:39.218Z,76.20
2018-02-16T22:29:05.506Z,76.20
2018-02-16T22:31:31.748Z,76.00
2018-02-16T22:33:58.117Z,75.80
2018-02-16T22:36:24.367Z,76.10
2018-02-16T22:38:50.743Z,75.70
2018-02-16T22:41:17.007Z,75.90
2018-02-16T22:43:43.247Z,75.90
2018-02-16T22:46:09.519Z,75.90
2018-02-16T22:48:35.762Z,75.80
2018-02-16T22:51:02.043Z,75.80
2018-02-16T22:53:28.383Z,76.00
2018-02-16T22:55:54.866Z,76.00
2018-02-16T22:58:22.923Z,76.10
2018-02-16T23:00:49.178Z,75.90
2018-02-16T23:03:20.226Z,76.10
2018-02-16T23:05:46.915Z,76.40
2018-02-16T23:08:13.180Z,76.30
2018-02-16T23:10:39.441Z,76.10
2018-02-16T23:13:05.970Z,76.40
2018-02-16T23:15:32.666Z,76.30
2018-02-16T23:17:58.955Z,76.40
2018-02-16T23:20:25.571Z,77.00
2018-02-16T23:22:51.844Z,76.90
2018-02-16T23:25:18.072Z,76.70
2018-02-16T23:27:44.343Z,76.70
2018-02-16T23:30:11.274Z,77.30
2018-02-16T23:32:37.530Z,77.70
2018-02-16T23:35:03.790Z,77.60
2018-02-16T23:37:30.062Z,77.80
2018-02-16T23:39:56.319Z,77.50
2018-02-16T23:42:22.562Z,77.30
2018-02-16T23:44:48.831Z,77.20
2018-02-16T23:47:21.629Z,77.20
2018-02-16T23:49:47.912Z,77.30
2018-02-16T23:52:14.164Z,77.20
2018-02-16T23:54:41.511Z,77.80
2018-02-16T23:57:07.780Z,78.00
2018-02-16T23:59:34.088Z,78.30
